Terminal Aerodrome Forecast
Issued by NWS

Home | Current Version | Previous Version | Text Only | Print | Product List | Glossary On
Versions: 1 2 3 4 5 6 7 8 9 10 11 12 13 14 15 16 17 18
000
FTUS42 KGSP 191200 CCA
TAFGMU
TAF COR
KGMU 191248Z 1913/2012 03012G20KT 3SM -RADZ BR SCT007 OVC012
      TEMPO 1913/1916 2SM -RA BR OVC007
     FM191600 04014G25KT P6SM -RA OVC015
     FM192300 04013G22KT P6SM VCSH OVC025
     FM200200 03012G21KT P6SM OVC040
     FM200700 03011G17KT P6SM BKN050=

USA.gov is the U.S. government's official web portal to all federal, state and local government web resources and services.